Time;durP1;ratioP1;P1;durP2;ratioP2;P2;SDS_P1;SDS_P2;PMS_P1;PMS_P2;Temp;Humidity;BMP_temperature;BMP_pressure;BME280_temperature;BME280_humidity;BME280_pressure;Samples;Min_cycle;Max_cycle;Signal;HPM_P1;HPM_P2
2022/04/15 00:00:06;;;;;;;9.05;6.05;;;13.20;99.90;;;;;;5072597;28;20255;-79
2022/04/15 00:02:34;;;;;;;6.43;5.05;;;13.20;99.90;;;;;;5073149;28;20205;-83
2022/04/15 00:05:01;;;;;;;13.70;6.20;;;13.20;99.90;;;;;;5072557;28;20284;-73
2022/04/15 00:07:28;;;;;;;9.85;5.43;;;13.20;99.90;;;;;;5072490;28;20202;-74
2022/04/15 00:09:55;;;;;;;5.05;4.47;;;13.20;99.90;;;;;;5072293;28;20206;-78
2022/04/15 00:12:28;;;;;;;6.10;5.00;;;13.20;99.90;;;;;;5072410;28;20238;-75
2022/04/15 00:14:56;;;;;;;6.90;5.97;;;13.20;99.90;;;;;;5072352;28;20206;-75
2022/04/15 00:17:23;;;;;;;9.70;4.25;;;13.20;99.90;;;;;;5072659;28;20202;-74
2022/04/15 00:19:52;;;;;;;8.70;4.60;;;13.20;99.90;;;;;;5072240;28;20259;-74
2022/04/15 00:22:19;;;;;;;6.70;4.57;;;13.20;99.90;;;;;;5072521;28;20205;-75
2022/04/15 00:24:45;;;;;;;5.22;4.13;;;13.20;99.90;;;;;;5072065;28;20743;-76
2022/04/15 00:27:13;;;;;;;7.22;4.05;;;13.20;99.90;;;;;;5072203;28;20669;-75
2022/04/15 00:29:40;;;;;;;5.43;4.03;;;13.30;99.90;;;;;;5072487;28;20704;-75
2022/04/15 00:32:07;;;;;;;6.22;4.13;;;13.30;99.90;;;;;;5072204;28;20225;-74
2022/04/15 00:34:35;;;;;;;9.00;3.88;;;13.20;99.90;;;;;;5072142;28;20734;-75
2022/04/15 00:37:03;;;;;;;8.85;4.78;;;13.20;99.90;;;;;;5071624;28;20611;-75
2022/04/15 00:39:31;;;;;;;8.38;5.07;;;13.30;99.90;;;;;;5072344;28;20206;-75
2022/04/15 00:41:59;;;;;;;5.40;3.85;;;13.10;99.90;;;;;;5071560;28;20210;-75
2022/04/15 00:44:26;;;;;;;8.50;5.00;;;13.10;99.90;;;;;;5072056;28;20203;-75
2022/04/15 00:46:53;;;;;;;5.80;4.38;;;13.10;99.90;;;;;;5071631;28;20233;-75
2022/04/15 00:49:20;;;;;;;7.35;4.38;;;13.00;99.90;;;;;;5071876;28;20259;-74
2022/04/15 00:51:50;;;;;;;4.50;4.00;;;13.10;99.90;;;;;;5071376;28;20207;-75
2022/04/15 00:54:20;;;;;;;8.07;5.50;;;13.10;99.90;;;;;;5071656;28;20662;-75
2022/04/15 00:56:50;;;;;;;6.65;3.85;;;13.10;99.90;;;;;;5071228;28;20292;-75
2022/04/15 00:59:19;;;;;;;5.88;3.90;;;13.10;99.90;;;;;;5071765;28;20201;-75
2022/04/15 01:01:48;;;;;;;4.85;4.35;;;13.10;99.90;;;;;;5071708;28;20255;-75
2022/04/15 01:04:16;;;;;;;6.82;3.60;;;13.00;99.90;;;;;;5071559;28;20297;-76
2022/04/15 01:06:45;;;;;;;7.20;4.35;;;12.90;99.90;;;;;;5071298;28;20202;-75
2022/04/15 01:09:13;;;;;;;8.00;5.40;;;12.80;99.90;;;;;;5071589;28;20268;-76
2022/04/15 01:11:44;;;;;;;5.07;3.63;;;12.80;99.90;;;;;;5071586;28;20207;-74
2022/04/15 01:14:14;;;;;;;8.85;4.38;;;12.70;99.90;;;;;;5071276;28;20283;-75
2022/04/15 01:16:41;;;;;;;5.85;4.53;;;12.60;99.90;;;;;;5071721;28;20198;-76
2022/04/15 01:19:08;;;;;;;7.68;4.32;;;12.60;99.90;;;;;;5071631;28;20202;-76
2022/04/15 01:21:38;;;;;;;9.75;4.82;;;12.70;99.90;;;;;;5071427;28;20252;-75
2022/04/15 01:24:07;;;;;;;8.10;4.90;;;12.50;99.90;;;;;;5070963;28;20252;-75
2022/04/15 01:26:34;;;;;;;6.05;4.70;;;12.30;99.90;;;;;;5070938;28;20733;-75
2022/04/15 01:29:02;;;;;;;5.63;5.10;;;12.40;99.90;;;;;;5071052;28;20883;-77
2022/04/15 01:31:31;;;;;;;4.10;3.42;;;12.50;99.90;;;;;;5070976;28;20252;-78
2022/04/15 01:33:59;;;;;;;4.53;3.50;;;12.60;99.90;;;;;;5070817;28;20338;-78
2022/04/15 01:36:26;;;;;;;5.32;3.47;;;12.40;99.90;;;;;;5071152;28;20241;-76
2022/04/15 01:38:55;;;;;;;5.15;3.85;;;12.30;99.90;;;;;;5070593;28;20255;-76
2022/04/15 01:41:24;;;;;;;5.22;4.07;;;12.30;99.90;;;;;;5070780;28;20677;-76
2022/04/15 01:43:51;;;;;;;9.45;4.05;;;12.40;99.90;;;;;;5070901;28;20228;-76
2022/04/15 01:46:18;;;;;;;6.68;4.00;;;12.50;99.90;;;;;;5071266;28;20202;-76
2022/04/15 01:48:45;;;;;;;5.05;3.03;;;12.60;99.90;;;;;;5070085;28;20210;-76
2022/04/15 01:51:12;;;;;;;9.30;4.25;;;12.40;99.90;;;;;;5071050;28;20202;-76
2022/04/15 01:53:39;;;;;;;5.90;3.70;;;12.20;99.90;;;;;;5070771;28;20282;-75
2022/04/15 01:56:06;;;;;;;5.72;2.85;;;12.30;99.90;;;;;;5070738;28;20743;-76
2022/04/15 01:58:35;;;;;;;4.45;3.63;;;12.30;99.90;;;;;;5070776;28;20264;-76
2022/04/15 02:01:02;;;;;;;8.88;3.80;;;12.30;99.90;;;;;;5070676;28;20206;-73
2022/04/15 02:03:29;;;;;;;4.57;4.00;;;12.30;99.90;;;;;;5070733;28;20570;-74
2022/04/15 02:05:56;;;;;;;4.70;3.13;;;12.40;99.90;;;;;;5070367;28;20276;-74
2022/04/15 02:08:23;;;;;;;5.90;3.80;;;12.40;99.90;;;;;;5070466;28;20276;-74
2022/04/15 02:10:50;;;;;;;4.18;3.08;;;12.20;99.90;;;;;;5070523;28;20206;-73
2022/04/15 02:13:17;;;;;;;6.38;3.60;;;12.10;99.90;;;;;;5070840;28;20303;-73
2022/04/15 02:15:45;;;;;;;7.10;3.42;;;12.00;99.90;;;;;;5070476;28;20206;-73
2022/04/15 02:18:13;;;;;;;8.87;4.13;;;12.00;99.90;;;;;;5070576;28;20681;-74
2022/04/15 02:20:40;;;;;;;10.07;4.15;;;12.10;99.90;;;;;;5070905;28;20208;-74
2022/04/15 02:23:07;;;;;;;3.78;3.10;;;12.10;99.90;;;;;;5070387;28;20210;-74
2022/04/15 02:25:34;;;;;;;4.28;3.35;;;12.20;99.90;;;;;;5070708;28;20259;-75
2022/04/15 02:28:01;;;;;;;6.10;3.72;;;12.30;99.90;;;;;;5070101;28;20210;-74
2022/04/15 02:30:28;;;;;;;5.10;3.35;;;12.30;99.90;;;;;;5070421;28;20301;-74
2022/04/15 02:32:57;;;;;;;7.50;3.13;;;12.30;99.90;;;;;;5070125;28;20648;-74
2022/04/15 02:35:24;;;;;;;5.40;3.47;;;12.30;99.90;;;;;;5070417;28;20633;-76
2022/04/15 02:37:51;;;;;;;3.83;2.80;;;12.30;99.90;;;;;;5069809;28;20620;-76
2022/04/15 02:40:18;;;;;;;8.32;3.45;;;12.30;99.90;;;;;;5070717;28;20272;-76
2022/04/15 02:42:45;;;;;;;5.85;3.13;;;12.30;99.90;;;;;;5069933;28;20244;-75
2022/04/15 02:45:13;;;;;;;4.82;3.05;;;12.20;99.90;;;;;;5070396;28;20199;-76
2022/04/15 02:47:40;;;;;;;5.47;3.38;;;12.20;99.90;;;;;;5070787;28;20202;-76
2022/04/15 02:50:10;;;;;;;7.72;4.13;;;12.10;99.90;;;;;;5052224;28;20207;-75
2022/04/15 02:52:37;;;;;;;7.15;4.20;;;12.00;99.90;;;;;;5050213;28;20295;-75
2022/04/15 02:55:05;;;;;;;4.80;3.38;;;12.10;99.90;;;;;;5049727;28;20254;-75
2022/04/15 02:57:32;;;;;;;5.88;5.03;;;11.90;99.90;;;;;;5050147;28;20221;-75
2022/04/15 02:59:59;;;;;;;5.22;3.63;;;12.00;99.90;;;;;;5050390;28;20211;-75
2022/04/15 03:02:27;;;;;;;4.32;3.92;;;12.10;99.90;;;;;;5053910;28;20663;-75
2022/04/15 03:04:54;;;;;;;6.65;4.20;;;11.90;99.90;;;;;;5053507;28;20207;-74
2022/04/15 03:07:22;;;;;;;5.20;3.37;;;11.80;99.90;;;;;;5053680;28;20199;-75
2022/04/15 03:09:49;;;;;;;5.65;4.15;;;11.80;99.90;;;;;;5053677;28;20203;-75
2022/04/15 03:12:16;;;;;;;10.38;4.43;;;11.70;99.90;;;;;;5053935;28;20206;-77
2022/04/15 03:14:44;;;;;;;6.20;3.33;;;11.70;99.90;;;;;;5053363;28;20238;-75
2022/04/15 03:17:12;;;;;;;11.15;5.40;;;11.90;99.90;;;;;;5054011;28;20203;-75
2022/04/15 03:19:39;;;;;;;4.85;3.53;;;12.00;99.90;;;;;;5053664;28;20298;-75
2022/04/15 03:22:06;;;;;;;8.73;5.60;;;12.00;99.90;;;;;;5053280;28;20255;-75
2022/04/15 03:24:34;;;;;;;11.13;3.70;;;11.90;99.90;;;;;;5053754;28;20210;-76
2022/04/15 03:27:01;;;;;;;4.65;3.75;;;11.80;99.90;;;;;;5053247;28;20203;-77
2022/04/15 03:29:28;;;;;;;5.45;4.03;;;11.80;99.90;;;;;;5053415;28;20203;-75
2022/04/15 03:31:55;;;;;;;7.37;3.17;;;11.90;99.90;;;;;;5053050;28;20207;-75
2022/04/15 03:34:22;;;;;;;7.07;3.50;;;11.90;99.90;;;;;;5053489;28;20234;-75
2022/04/15 03:36:49;;;;;;;9.60;5.90;;;12.00;99.90;;;;;;5053010;28;20203;-75
2022/04/15 03:39:16;;;;;;;12.60;5.40;;;11.80;99.90;;;;;;5053462;28;20293;-75
2022/04/15 03:41:44;;;;;;;5.03;3.70;;;11.70;99.90;;;;;;5052781;28;20210;-75
2022/04/15 03:44:11;;;;;;;5.47;3.53;;;11.60;99.90;;;;;;5053145;28;20257;-75
2022/04/15 03:46:40;;;;;;;8.20;4.68;;;11.80;99.90;;;;;;5082376;28;20202;-74
2022/04/15 03:49:08;;;;;;;4.45;3.90;;;11.90;99.90;;;;;;5093451;28;20633;-74
2022/04/15 03:51:35;;;;;;;5.63;4.00;;;11.80;99.90;;;;;;5093048;28;20259;-75
2022/04/15 03:54:02;;;;;;;5.67;4.13;;;11.80;99.90;;;;;;5092832;28;20233;-75
2022/04/15 03:56:29;;;;;;;7.80;4.32;;;12.00;99.90;;;;;;5093193;28;20231;-75
2022/04/15 03:58:57;;;;;;;6.25;4.40;;;12.10;99.90;;;;;;5092429;28;20213;-74
2022/04/15 04:01:26;;;;;;;6.13;3.97;;;12.00;99.90;;;;;;5093227;28;20201;-75
2022/04/15 04:03:52;;;;;;;6.78;4.50;;;12.00;99.90;;;;;;5091119;28;20665;-74
2022/04/15 04:06:19;;;;;;;5.95;4.18;;;11.90;99.90;;;;;;5072475;28;20620;-74
2022/04/15 04:08:50;;;;;;;8.00;3.72;;;11.70;99.90;;;;;;5071880;28;20739;-74
2022/04/15 04:11:17;;;;;;;9.00;3.93;;;11.70;99.90;;;;;;5072202;28;20202;-74
2022/04/15 04:13:44;;;;;;;4.43;3.75;;;11.80;99.90;;;;;;5071578;28;20311;-76
2022/04/15 04:16:13;;;;;;;8.70;4.40;;;11.70;99.90;;;;;;5081322;28;20253;-76
2022/04/15 04:18:40;;;;;;;7.53;3.65;;;11.70;99.90;;;;;;5072025;28;20241;-75
2022/04/15 04:21:07;;;;;;;7.30;3.90;;;11.60;99.90;;;;;;5071677;28;20210;-76
2022/04/15 04:23:34;;;;;;;6.50;4.10;;;11.70;99.90;;;;;;5071213;28;20210;-76
2022/04/15 04:26:02;;;;;;;10.13;4.55;;;11.70;99.90;;;;;;5070219;28;20206;-75
2022/04/15 04:28:29;;;;;;;6.88;4.05;;;11.60;99.90;;;;;;5071659;28;20658;-78
2022/04/15 04:30:56;;;;;;;4.77;4.23;;;11.70;99.90;;;;;;5071871;28;20208;-78
2022/04/15 04:33:24;;;;;;;5.65;3.85;;;11.70;99.90;;;;;;5072144;28;20230;-77
2022/04/15 04:35:51;;;;;;;9.35;4.43;;;11.60;99.90;;;;;;5071967;28;20202;-77
2022/04/15 04:38:19;;;;;;;5.75;4.35;;;11.60;99.90;;;;;;5072163;28;20255;-79
2022/04/15 04:40:47;;;;;;;6.93;4.65;;;11.50;99.90;;;;;;5071917;28;20213;-75
2022/04/15 04:43:14;;;;;;;7.73;5.10;;;11.60;99.90;;;;;;5071987;28;20203;-75
2022/04/15 04:45:41;;;;;;;6.23;5.63;;;11.70;99.90;;;;;;5072322;28;20255;-72
2022/04/15 04:48:09;;;;;;;11.15;5.10;;;11.60;99.90;;;;;;5071424;28;20209;-74
2022/04/15 04:50:37;;;;;;;8.65;4.70;;;11.70;99.90;;;;;;5072263;28;20225;-74
2022/04/15 04:53:04;;;;;;;8.07;5.13;;;11.70;99.90;;;;;;5071446;28;20202;-74
2022/04/15 04:55:31;;;;;;;10.10;4.77;;;11.70;99.90;;;;;;5071664;28;20429;-73
2022/04/15 04:57:58;;;;;;;9.23;5.30;;;11.50;99.90;;;;;;5071030;28;20213;-73
2022/04/15 05:00:25;;;;;;;9.97;4.93;;;11.60;99.90;;;;;;5071789;28;20214;-72
2022/04/15 05:02:52;;;;;;;5.90;4.10;;;11.60;99.90;;;;;;5070749;28;20259;-72
2022/04/15 05:05:19;;;;;;;10.20;5.10;;;11.60;99.90;;;;;;5071624;28;20212;-74
2022/04/15 05:07:48;;;;;;;10.00;6.00;;;11.70;99.90;;;;;;5070984;28;20295;-73
2022/04/15 05:10:14;;;;;;;8.67;5.67;;;11.70;99.90;;;;;;5071670;28;20202;-73
2022/04/15 05:12:42;;;;;;;9.13;5.10;;;11.70;99.90;;;;;;5071351;28;20727;-74
2022/04/15 05:15:11;;;;;;;12.27;6.10;;;11.70;99.90;;;;;;5071627;28;20241;-74
2022/04/15 05:17:42;;;;;;;9.00;6.27;;;11.80;99.90;;;;;;5071546;28;20633;-74
2022/04/15 05:20:09;;;;;;;6.73;5.33;;;11.90;99.90;;;;;;5071678;28;20622;-74
2022/04/15 05:22:36;;;;;;;7.50;5.60;;;12.00;99.90;;;;;;5071046;28;20255;-74
2022/04/15 05:25:06;;;;;;;11.63;5.23;;;11.90;99.90;;;;;;5070778;28;20266;-73
2022/04/15 05:27:33;;;;;;;11.90;6.23;;;11.90;99.90;;;;;;5071233;28;20662;-72
2022/04/15 05:30:00;;;;;;;8.20;5.97;;;11.70;99.90;;;;;;5067761;28;20624;-71
2022/04/15 05:32:27;;;;;;;7.20;5.83;;;11.80;99.90;;;;;;5050934;28;20203;-72
2022/04/15 05:34:54;;;;;;;8.03;5.93;;;11.70;99.90;;;;;;5050158;28;20543;-74
2022/04/15 05:37:21;;;;;;;9.27;5.73;;;11.60;99.90;;;;;;5049526;28;20253;-73
2022/04/15 05:39:48;;;;;;;10.93;6.35;;;11.70;99.90;;;;;;5050201;28;20202;-73
2022/04/15 05:42:16;;;;;;;10.27;6.40;;;11.60;99.90;;;;;;5051013;28;20211;-73
2022/04/15 05:44:43;;;;;;;9.45;5.68;;;11.60;99.90;;;;;;5050678;28;20284;-72
2022/04/15 05:47:10;;;;;;;6.50;5.13;;;11.60;99.90;;;;;;5051014;28;20257;-74
2022/04/15 05:49:37;;;;;;;8.25;6.05;;;11.70;99.90;;;;;;5051594;28;20215;-72
2022/04/15 05:52:05;;;;;;;9.15;5.35;;;11.70;99.90;;;;;;5050680;28;20260;-73
2022/04/15 05:54:32;;;;;;;7.88;5.18;;;11.80;99.90;;;;;;5051009;28;20721;-74
2022/04/15 05:56:59;;;;;;;9.48;5.70;;;11.70;99.90;;;;;;5050477;28;20372;-74
2022/04/15 05:59:27;;;;;;;12.07;6.22;;;11.70;99.90;;;;;;5050837;28;20198;-74
2022/04/15 06:01:54;;;;;;;7.85;5.13;;;11.80;99.90;;;;;;5050139;28;20203;-73
2022/04/15 06:04:21;;;;;;;10.53;6.43;;;11.90;99.90;;;;;;5050907;28;20267;-74
2022/04/15 06:06:48;;;;;;;8.80;6.07;;;11.90;99.90;;;;;;5051516;28;20199;-74
2022/04/15 06:09:15;;;;;;;11.30;7.27;;;11.90;99.90;;;;;;5068787;28;20280;-75
2022/04/15 06:11:42;;;;;;;12.23;7.30;;;11.90;99.90;;;;;;5064042;28;20206;-73
2022/04/15 06:14:09;;;;;;;11.43;7.33;;;11.90;99.90;;;;;;5060188;28;20793;-73
2022/04/15 06:16:42;;;;;;;13.85;7.03;;;12.00;99.90;;;;;;5070197;28;20621;-74
2022/04/15 06:19:09;;;;;;;9.25;6.95;;;12.00;99.90;;;;;;5068305;28;20198;-73
2022/04/15 06:21:36;;;;;;;12.27;7.00;;;12.10;99.90;;;;;;5070684;28;20210;-75
2022/04/15 06:24:03;;;;;;;10.20;7.43;;;12.20;99.90;;;;;;5066228;28;20218;-74
2022/04/15 06:26:30;;;;;;;8.63;7.47;;;12.30;99.90;;;;;;5070168;28;20259;-71
2022/04/15 06:28:57;;;;;;;9.73;7.13;;;12.40;99.90;;;;;;5069573;28;20194;-73
2022/04/15 06:31:24;;;;;;;8.93;7.18;;;12.40;99.90;;;;;;5069229;28;20210;-73
2022/04/15 06:33:53;;;;;;;8.35;7.32;;;12.50;99.90;;;;;;5070426;28;20202;-72
2022/04/15 06:36:20;;;;;;;9.88;6.97;;;12.60;99.90;;;;;;5074455;28;20210;-74
2022/04/15 06:38:47;;;;;;;9.70;7.35;;;12.70;99.90;;;;;;5055528;28;20301;-72
2022/04/15 06:41:14;;;;;;;12.20;8.13;;;12.70;99.90;;;;;;5056062;28;20209;-73
2022/04/15 06:43:41;;;;;;;13.85;8.80;;;12.70;99.90;;;;;;5073478;28;20206;-71
2022/04/15 06:46:08;;;;;;;8.68;6.95;;;12.80;99.90;;;;;;5074734;28;20280;-70
2022/04/15 06:48:35;;;;;;;15.27;8.20;;;13.00;99.90;;;;;;5062748;28;20210;-73
2022/04/15 06:51:03;;;;;;;10.85;7.53;;;13.10;99.90;;;;;;5072573;28;20210;-70
2022/04/15 06:53:30;;;;;;;15.57;8.65;;;13.10;99.90;;;;;;5073600;28;20251;-72
2022/04/15 06:55:58;;;;;;;13.30;8.73;;;13.30;99.90;;;;;;5071877;28;20238;-71
2022/04/15 06:58:25;;;;;;;9.32;7.90;;;13.40;99.90;;;;;;5073496;28;20645;-70
2022/04/15 07:00:53;;;;;;;11.63;8.43;;;13.50;99.90;;;;;;5073459;28;20264;-69
2022/04/15 07:03:20;;;;;;;10.27;7.53;;;13.60;99.90;;;;;;5073564;28;20242;-70
2022/04/15 07:05:47;;;;;;;16.80;8.65;;;13.70;99.90;;;;;;5067842;28;20294;-71
2022/04/15 07:08:16;;;;;;;11.88;7.95;;;13.60;99.90;;;;;;5053812;28;20667;-73
2022/04/15 07:10:43;;;;;;;11.95;7.57;;;13.50;99.90;;;;;;5062564;28;20206;-73
2022/04/15 07:13:12;;;;;;;12.07;8.60;;;13.60;99.90;;;;;;5073337;28;20202;-71
2022/04/15 07:15:39;;;;;;;8.65;7.85;;;13.80;99.90;;;;;;5073806;28;20259;-75
2022/04/15 07:18:06;;;;;;;9.52;7.88;;;13.90;99.90;;;;;;5073720;28;20215;-76
2022/04/15 07:20:33;;;;;;;9.32;6.57;;;14.10;99.90;;;;;;5073739;28;20206;-72
2022/04/15 07:23:01;;;;;;;12.05;7.78;;;14.00;99.90;;;;;;5073266;28;20206;-72
2022/04/15 07:25:30;;;;;;;10.02;9.00;;;14.10;99.90;;;;;;5064971;28;20202;-72
2022/04/15 07:27:57;;;;;;;11.98;7.88;;;14.10;99.90;;;;;;5064239;28;20252;-74
2022/04/15 07:30:24;;;;;;;9.07;8.18;;;14.30;99.90;;;;;;5072875;28;20248;-74
2022/04/15 07:32:53;;;;;;;15.30;9.25;;;14.40;99.90;;;;;;5070283;28;20206;-72
2022/04/15 07:35:20;;;;;;;10.85;9.02;;;14.50;99.90;;;;;;5064185;28;20226;-72
2022/04/15 07:37:47;;;;;;;10.90;8.57;;;14.40;99.90;;;;;;5072637;28;20202;-73
2022/04/15 07:40:14;;;;;;;10.57;8.40;;;14.50;99.90;;;;;;5073198;28;20206;-72
2022/04/15 07:42:43;;;;;;;11.68;8.27;;;14.70;99.90;;;;;;5071814;28;20202;-74
2022/04/15 07:45:10;;;;;;;13.02;8.52;;;14.90;99.90;;;;;;5064994;28;20670;-76
2022/04/15 07:47:37;;;;;;;10.13;8.13;;;15.10;99.90;;;;;;5072544;28;20206;-74
2022/04/15 07:50:04;;;;;;;15.30;8.02;;;14.80;99.90;;;;;;5072422;28;20210;-72
2022/04/15 07:52:33;;;;;;;11.05;8.07;;;14.90;99.90;;;;;;5072641;28;20205;-72
2022/04/15 07:55:00;;;;;;;9.45;8.25;;;14.90;99.90;;;;;;5071270;28;20241;-72
2022/04/15 07:57:29;;;;;;;9.73;7.97;;;14.90;99.90;;;;;;5058466;28;20768;-71
2022/04/15 07:59:58;;;;;;;10.68;7.63;;;14.90;99.90;;;;;;5069362;28;20198;-71
2022/04/15 08:02:25;;;;;;;10.40;7.80;;;14.80;99.90;;;;;;5071505;28;20202;-73
2022/04/15 08:04:52;;;;;;;15.18;9.07;;;14.90;99.90;;;;;;5070438;28;20203;-73
2022/04/15 08:07:19;;;;;;;13.70;8.10;;;14.90;99.90;;;;;;5072644;28;20206;-73
2022/04/15 08:09:46;;;;;;;13.02;8.80;;;15.00;99.90;;;;;;5071764;28;20325;-71
2022/04/15 08:12:13;;;;;;;9.25;7.40;;;15.20;99.90;;;;;;5072269;28;20206;-78
2022/04/15 08:14:40;;;;;;;13.90;8.32;;;15.20;99.90;;;;;;5067181;28;20615;-73
2022/04/15 08:17:09;;;;;;;10.85;8.48;;;15.50;99.90;;;;;;5071064;28;20207;-74
2022/04/15 08:19:37;;;;;;;14.85;8.93;;;15.30;99.90;;;;;;5073399;28;20207;-73
2022/04/15 08:22:09;;;;;;;17.70;9.32;;;15.50;99.90;;;;;;5061912;28;20297;-74
2022/04/15 08:24:39;;;;;;;12.00;8.25;;;15.50;99.90;;;;;;5071742;28;20213;-72
2022/04/15 08:27:06;;;;;;;10.20;8.45;;;15.60;99.90;;;;;;5071438;28;20210;-72
2022/04/15 08:29:35;;;;;;;10.77;9.18;;;15.60;99.90;;;;;;5070420;28;20235;-73
2022/04/15 08:32:02;;;;;;;9.75;7.93;;;14.80;99.90;;;;;;5070991;28;20685;-72
2022/04/15 08:34:30;;;;;;;19.30;10.73;;;15.80;99.90;;;;;;5071682;28;20624;-73
2022/04/15 08:36:57;;;;;;;11.45;7.43;;;15.80;99.90;;;;;;5071849;28;20212;-73
2022/04/15 08:39:24;;;;;;;9.98;8.35;;;15.60;99.90;;;;;;5070298;28;20206;-72
2022/04/15 08:41:53;;;;;;;12.10;7.47;;;15.90;99.90;;;;;;5071274;28;20202;-74
2022/04/15 08:44:21;;;;;;;10.80;8.70;;;15.90;99.90;;;;;;5071625;28;20225;-73
2022/04/15 08:46:50;;;;;;;13.02;9.32;;;16.00;99.90;;;;;;5069523;28;20263;-72
2022/04/15 08:49:19;;;;;;;15.63;10.93;;;16.10;99.90;;;;;;5069172;28;20207;-71
2022/04/15 08:51:50;;;;;;;13.68;9.55;;;16.10;99.90;;;;;;5069685;28;20202;-73
2022/04/15 08:54:17;;;;;;;15.48;8.80;;;16.20;99.90;;;;;;5070700;28;20210;-74
2022/04/15 08:56:44;;;;;;;9.38;8.55;;;16.20;99.90;;;;;;5070313;28;20633;-72
2022/04/15 08:59:11;;;;;;;13.95;9.15;;;16.00;99.90;;;;;;5070713;28;20218;-73
2022/04/15 09:01:38;;;;;;;13.48;10.45;;;16.30;99.90;;;;;;5071611;28;20727;-73
2022/04/15 09:04:05;;;;;;;10.38;8.77;;;16.70;99.90;;;;;;5068143;28;20206;-72
2022/04/15 09:09:12;;;;;;;10.75;7.60;;;16.60;99.90;;;;;;5392372;22;20245;-73
2022/04/15 09:11:40;;;;;;;9.70;7.85;;;16.40;99.90;;;;;;4990677;28;20259;-74
2022/04/15 09:14:10;;;;;;;11.60;9.35;;;16.70;99.90;;;;;;4992397;28;20652;-74
2022/04/15 09:16:41;;;;;;;9.57;8.55;;;17.00;99.90;;;;;;4988893;28;20240;-73
2022/04/15 09:19:09;;;;;;;15.23;9.13;;;17.10;99.90;;;;;;4989138;28;20303;-73
2022/04/15 09:21:36;;;;;;;8.70;7.22;;;17.60;99.90;;;;;;4991656;28;20637;-73
2022/04/15 09:24:04;;;;;;;10.18;8.52;;;17.70;99.90;;;;;;4991770;28;20216;-74
2022/04/15 09:26:32;;;;;;;8.05;7.18;;;18.10;99.90;;;;;;4991792;28;20216;-73
2022/04/15 09:28:59;;;;;;;15.07;8.13;;;17.60;99.90;;;;;;4992253;28;20259;-74
2022/04/15 09:31:26;;;;;;;10.52;8.00;;;17.40;99.90;;;;;;4991582;28;20217;-76
2022/04/15 09:33:57;;;;;;;8.88;8.07;;;17.00;99.90;;;;;;4990944;28;20213;-74
2022/04/15 09:36:29;;;;;;;11.48;8.52;;;17.40;99.90;;;;;;4986701;28;20232;-73
2022/04/15 09:38:58;;;;;;;9.77;8.02;;;17.60;99.90;;;;;;4989720;28;20216;-74
2022/04/15 09:41:26;;;;;;;8.35;7.53;;;17.40;99.90;;;;;;4991489;28;20213;-73
2022/04/15 09:43:56;;;;;;;9.20;7.72;;;17.20;99.90;;;;;;4985024;28;20214;-76
2022/04/15 09:46:23;;;;;;;10.68;8.43;;;17.00;99.90;;;;;;4975059;28;20616;-74
2022/04/15 09:49:06;;;;;;;8.68;7.88;;;17.10;99.90;;;;;;4990012;28;20236;-74
2022/04/15 09:51:36;;;;;;;9.02;8.13;;;18.10;99.90;;;;;;4971888;28;20267;-76
2022/04/15 09:54:05;;;;;;;15.13;8.73;;;18.60;99.90;;;;;;4978842;28;20308;-76
2022/04/15 09:56:35;;;;;;;11.40;8.98;;;18.00;99.90;;;;;;4988090;28;20263;-76
2022/04/15 09:59:08;;;;;;;9.98;8.43;;;17.70;99.90;;;;;;4990407;28;20641;-75
2022/04/15 10:01:38;;;;;;;9.40;8.40;;;17.60;99.90;;;;;;4987630;28;20204;-76
2022/04/15 10:04:05;;;;;;;8.00;7.18;;;17.50;99.90;;;;;;4987955;28;20216;-75
2022/04/15 10:06:33;;;;;;;8.30;7.43;;;17.20;99.90;;;;;;4989117;28;20208;-75
2022/04/15 10:09:02;;;;;;;12.63;7.70;;;17.30;99.90;;;;;;4987099;28;20224;-75
2022/04/15 10:11:35;;;;;;;10.30;8.02;;;17.70;99.90;;;;;;4981836;28;20223;-75
2022/04/15 10:14:04;;;;;;;9.38;8.40;;;17.90;99.90;;;;;;4988884;28;20209;-74
2022/04/15 10:16:32;;;;;;;8.20;7.22;;;18.70;99.90;;;;;;4986899;28;20229;-79
2022/04/15 10:19:02;;;;;;;8.38;7.55;;;18.00;99.90;;;;;;4990823;28;20209;-74
2022/04/15 10:21:33;;;;;;;10.20;7.93;;;17.70;99.90;;;;;;4988699;28;20229;-75
2022/04/15 10:24:02;;;;;;;9.02;7.32;;;17.80;99.90;;;;;;4990103;28;20216;-82
2022/04/15 10:26:33;;;;;;;8.80;7.57;;;17.20;99.90;;;;;;4985736;28;20229;-78
2022/04/15 10:29:04;;;;;;;8.15;7.28;;;17.20;99.90;;;;;;4988727;28;20303;-77
2022/04/15 10:31:38;;;;;;;13.23;7.97;;;17.10;99.90;;;;;;4990889;28;20621;-77
2022/04/15 10:34:11;;;;;;;16.45;7.32;;;17.30;99.90;;;;;;4989551;28;20702;-77
2022/04/15 10:36:39;;;;;;;7.22;6.55;;;16.90;99.90;;;;;;4989888;28;20320;-77
2022/04/15 10:39:20;;;;;;;7.35;6.57;;;16.60;99.90;;;;;;4990511;28;20297;-76
2022/04/15 10:47:00;;;;;;;8.68;6.03;;;16.90;99.90;;;;;;4991080;28;20592;-75
2022/04/15 10:49:30;;;;;;;10.18;6.32;;;16.90;99.90;;;;;;5002250;28;20215;-75
2022/04/15 10:52:00;;;;;;;7.43;6.10;;;17.20;99.90;;;;;;5003150;28;20622;-75
2022/04/15 10:54:41;;;;;;;7.07;5.82;;;17.00;99.90;;;;;;5004655;28;21335;-76
2022/04/15 10:57:11;;;;;;;5.85;5.25;;;16.70;99.90;;;;;;4999443;28;20299;-72
2022/04/15 11:02:24;;;;;;;8.30;5.90;;;16.50;99.90;;;;;;5008567;28;20207;-73
2022/04/15 11:04:52;;;;;;;7.72;5.47;;;17.20;99.90;;;;;;5009277;28;20204;-73
2022/04/15 11:07:26;;;;;;;10.73;6.15;;;17.40;99.90;;;;;;5009477;28;20200;-78
2022/04/15 11:09:52;;;;;;;8.93;7.55;;;16.90;99.90;;;;;;5008635;28;20593;-75
2022/04/15 11:12:29;;;;;;;6.28;5.68;;;17.40;99.90;;;;;;5009605;28;20263;-75
2022/04/15 11:14:55;;;;;;;6.70;5.32;;;17.90;99.90;;;;;;5009036;28;20210;-74
2022/04/15 11:17:37;;;;;;;6.05;5.05;;;18.20;99.90;;;;;;5009803;28;20215;-77
2022/04/15 11:20:05;;;;;;;9.77;6.75;;;17.80;99.90;;;;;;5010367;28;20204;-75
2022/04/15 11:22:33;;;;;;;6.93;5.53;;;17.40;99.90;;;;;;5012612;28;20248;-75
2022/04/15 11:25:00;;;;;;;5.97;5.45;;;17.50;99.90;;;;;;5011937;28;20208;-76
2022/04/15 11:27:26;;;;;;;7.85;5.97;;;17.60;99.90;;;;;;5004881;28;20220;-73
2022/04/15 11:29:55;;;;;;;6.35;5.72;;;17.20;99.90;;;;;;5010175;28;20204;-73
2022/04/15 11:32:22;;;;;;;9.93;5.95;;;17.10;99.90;;;;;;5005609;28;20211;-74
2022/04/15 11:34:54;;;;;;;6.40;4.85;;;17.40;99.90;;;;;;5005524;28;20205;-74
2022/04/15 11:37:21;;;;;;;6.32;5.72;;;17.70;99.90;;;;;;5012018;28;20204;-73
2022/04/15 11:39:47;;;;;;;7.07;6.18;;;17.80;99.90;;;;;;5011770;28;20672;-74
2022/04/15 11:42:17;;;;;;;6.32;5.15;;;17.70;99.90;;;;;;5010947;28;20215;-74
2022/04/15 11:44:44;;;;;;;6.78;5.10;;;17.60;99.90;;;;;;5009733;28;20204;-72
2022/04/15 11:47:19;;;;;;;5.57;5.03;;;17.80;99.90;;;;;;5010802;28;20204;-72
2022/04/15 12:05:19;;;;;;;5.28;4.75;;;18.60;99.90;;;;;;5136856;23;20270;-75
2022/04/15 12:07:46;;;;;;;5.50;4.57;;;18.70;99.90;;;;;;4996124;28;20668;-73
2022/04/15 12:10:14;;;;;;;5.43;4.93;;;18.90;99.90;;;;;;5009989;28;20208;-74
2022/04/15 12:12:42;;;;;;;5.15;4.65;;;18.80;99.90;;;;;;5007504;28;20216;-73
2022/04/15 12:15:12;;;;;;;5.50;5.00;;;18.50;99.90;;;;;;4997776;28;20204;-74
2022/04/15 12:17:39;;;;;;;5.00;4.47;;;18.80;99.90;;;;;;5012520;28;20208;-75
2022/04/15 12:20:07;;;;;;;7.82;4.72;;;19.00;99.90;;;;;;5011633;28;20209;-77
2022/04/15 12:22:37;;;;;;;4.85;4.45;;;19.20;99.90;;;;;;4996209;28;20275;-75
2022/04/15 12:25:20;;;;;;;6.32;4.93;;;19.40;99.90;;;;;;4991999;28;20207;-75
2022/04/15 12:27:47;;;;;;;5.43;4.85;;;19.40;99.90;;;;;;4989598;28;20506;-75
2022/04/15 12:30:14;;;;;;;7.95;4.45;;;19.30;99.90;;;;;;4992524;28;20205;-75
2022/04/15 12:32:42;;;;;;;7.78;4.05;;;19.50;99.90;;;;;;4993013;28;20204;-75
2022/04/15 12:35:12;;;;;;;4.05;3.35;;;19.90;99.90;;;;;;4992612;28;20209;-75
2022/04/15 12:37:43;;;;;;;5.97;4.22;;;20.20;99.90;;;;;;4993240;28;20212;-75
2022/04/15 12:40:29;;;;;;;4.35;3.83;;;20.10;99.90;;;;;;4992565;28;20295;-75
2022/04/15 12:42:57;;;;;;;5.65;4.72;;;19.90;99.90;;;;;;4993062;28;20204;-75
2022/04/15 12:45:25;;;;;;;5.32;4.68;;;19.80;99.90;;;;;;4992539;28;20622;-76
2022/04/15 12:48:00;;;;;;;4.65;4.25;;;20.00;99.90;;;;;;4993123;28;20217;-75
2022/04/15 12:50:31;;;;;;;5.00;4.50;;;20.20;99.90;;;;;;4992422;28;20267;-75
2022/04/15 12:52:59;;;;;;;5.18;4.47;;;20.40;99.90;;;;;;4992879;28;20209;-74
2022/04/15 12:55:28;;;;;;;5.22;3.72;;;20.40;99.90;;;;;;4992253;28;20209;-75
2022/04/15 12:57:55;;;;;;;5.80;4.05;;;20.40;99.90;;;;;;4992905;28;20318;-75
2022/04/15 13:00:23;;;;;;;6.22;4.40;;;20.60;99.90;;;;;;4998316;28;20216;-76
2022/04/15 13:02:50;;;;;;;6.53;4.20;;;20.30;99.90;;;;;;5012343;28;20213;-76
2022/04/15 13:05:17;;;;;;;6.80;4.43;;;20.60;99.90;;;;;;5011630;28;20212;-76
2022/04/15 13:07:46;;;;;;;4.63;3.65;;;20.50;99.90;;;;;;5012028;28;20262;-75
2022/04/15 13:10:15;;;;;;;5.03;4.10;;;20.50;99.90;;;;;;5011797;28;20212;-76
2022/04/15 13:12:42;;;;;;;4.88;3.67;;;20.60;99.90;;;;;;5012113;28;20259;-75